Time;durP1;ratioP1;P1;durP2;ratioP2;P2;SDS_P1;SDS_P2;PMS_P1;PMS_P2;Temp;Humidity;BMP_temperature;BMP_pressure;BME280_temperature;BME280_humidity;BME280_pressure;Samples;Min_cycle;Max_cycle;Signal;HPM_P1;HPM_P2
2022/10/09 00:01:19;;;;;;;8.27;4.77;;;;;;;9.99;100.00;100769.42;1726551;83;22538;-57
2022/10/09 00:03:48;;;;;;;9.73;4.83;;;;;;;9.96;100.00;100774.95;1723151;82;21925;-64
2022/10/09 00:06:21;;;;;;;7.23;5.00;;;;;;;9.90;100.00;100767.83;1718469;82;21490;-57
2022/10/09 00:08:48;;;;;;;8.53;5.37;;;;;;;9.90;100.00;100767.83;1718365;83;21921;-56
2022/10/09 00:11:20;;;;;;;7.40;5.30;;;;;;;9.90;100.00;100764.73;1669061;86;21196;-57
2022/10/09 00:13:48;;;;;;;7.00;4.40;;;;;;;9.88;100.00;100770.58;1718779;83;21253;-66
2022/10/09 00:16:16;;;;;;;8.43;5.30;;;;;;;9.89;100.00;100763.61;1726044;83;21738;-57
2022/10/09 00:18:43;;;;;;;8.33;5.00;;;;;;;9.89;100.00;100765.72;1718679;83;21231;-57
2022/10/09 00:21:30;;;;;;;8.07;5.57;;;;;;;9.88;100.00;100761.47;1718364;83;21206;-57
2022/10/09 00:23:59;;;;;;;7.93;5.20;;;;;;;9.85;100.00;100754.47;1714492;83;21160;-59
2022/10/09 00:26:26;;;;;;;9.63;5.10;;;;;;;9.81;100.00;100755.32;1718691;83;21271;-57
2022/10/09 00:28:54;;;;;;;8.00;4.50;;;;;;;9.81;100.00;100756.63;1718800;83;21000;-56
2022/10/09 00:31:21;;;;;;;7.23;4.77;;;;;;;9.80;100.00;100754.98;1718957;83;21170;-57
2022/10/09 00:33:50;;;;;;;10.13;5.70;;;;;;;9.84;100.00;100756.76;1718743;83;21335;-59
2022/10/09 00:36:20;;;;;;;9.40;5.47;;;;;;;9.84;100.00;100752.36;1718448;83;21118;-57
2022/10/09 00:38:48;;;;;;;7.17;5.00;;;;;;;9.87;100.00;100760.34;1718935;83;21267;-57
2022/10/09 00:41:19;;;;;;;9.60;5.23;;;;;;;9.92;100.00;100754.14;1718617;83;21342;-57
2022/10/09 00:43:50;;;;;;;7.63;5.20;;;;;;;9.91;100.00;100752.03;1718631;83;21150;-58
2022/10/09 00:46:41;;;;;;;8.75;5.55;;;;;;;9.93;100.00;100748.78;1718908;83;21338;-59
2022/10/09 00:49:30;;;;;;;9.20;5.37;;;;;;;9.98;100.00;100754.78;1718906;82;20934;-56
2022/10/09 00:52:01;;;;;;;7.83;4.63;;;;;;;9.96;100.00;100753.66;1718002;83;22054;-57
2022/10/09 00:54:31;;;;;;;8.23;4.83;;;;;;;9.94;100.00;100750.40;1718668;83;21234;-57
2022/10/09 00:56:58;;;;;;;7.17;4.97;;;;;;;9.90;100.00;100750.91;1718972;83;21228;-58
2022/10/09 00:59:26;;;;;;;9.53;5.47;;;;;;;9.85;100.00;100744.89;1671219;83;21180;-58
2022/10/09 01:01:53;;;;;;;8.80;5.17;;;;;;;9.81;100.00;100746.21;1718696;83;21288;-57
2022/10/09 01:04:20;;;;;;;8.37;5.37;;;;;;;9.60;100.00;100751.11;1721744;82;21326;-57
2022/10/09 01:07:04;;;;;;;8.83;5.80;;;;;;;9.71;100.00;100742.97;1726212;83;21212;-61
2022/10/09 01:09:43;;;;;;;11.50;5.93;;;;;;;9.70;100.00;100743.95;1725849;83;21203;-58
2022/10/09 01:12:36;;;;;;;7.87;5.27;;;;;;;9.70;100.00;100746.55;1697273;83;21208;-57
2022/10/09 01:15:19;;;;;;;8.70;5.30;;;;;;;9.68;100.00;100753.70;1725594;83;21464;-57
2022/10/09 01:18:23;;;;;;;8.60;5.40;;;;;;;9.64;100.00;100753.22;1726792;83;21133;-58
2022/10/09 01:21:19;;;;;;;8.17;5.53;;;;;;;9.63;100.00;100760.70;1725694;83;22009;-57
2022/10/09 01:24:22;;;;;;;8.20;5.27;;;;;;;9.59;100.00;100749.00;1725103;83;21237;-59
2022/10/09 01:27:12;;;;;;;7.93;5.27;;;;;;;9.60;100.00;100746.72;1726650;83;21213;-57
2022/10/09 01:29:47;;;;;;;8.63;5.47;;;;;;;9.60;100.00;100738.09;1726121;83;21559;-57
2022/10/09 01:32:17;;;;;;;10.20;6.20;;;;;;;9.60;100.00;100743.30;1726135;83;21257;-57
2022/10/09 01:34:45;;;;;;;8.03;5.27;;;;;;;9.61;100.00;100742.31;1726144;83;21239;-65
2022/10/09 01:37:12;;;;;;;8.20;5.70;;;;;;;9.73;100.00;100743.59;1725672;83;21176;-57
2022/10/09 01:39:42;;;;;;;10.00;5.93;;;;;;;9.76;100.00;100743.27;1726465;83;21840;-57
2022/10/09 01:42:11;;;;;;;9.60;5.60;;;;;;;9.73;100.00;100738.39;1726619;83;21273;-56
2022/10/09 01:44:38;;;;;;;9.27;6.20;;;;;;;9.69;100.00;100747.51;1726558;83;21829;-57
2022/10/09 01:47:06;;;;;;;9.43;6.27;;;;;;;9.69;100.00;100741.00;1726204;83;21303;-59
2022/10/09 01:49:44;;;;;;;8.00;6.07;;;;;;;9.71;100.00;100742.97;1726179;83;21724;-57
2022/10/09 01:52:30;;;;;;;11.30;6.40;;;;;;;9.70;100.00;100741.34;1726196;83;21216;-58
2022/10/09 01:55:28;;;;;;;10.53;5.83;;;;;;;9.70;100.00;100738.25;1726026;83;21811;-65
2022/10/09 01:58:24;;;;;;;9.97;6.40;;;;;;;9.70;100.00;100734.84;1726356;83;21224;-55
2022/10/09 02:01:07;;;;;;;15.27;6.07;;;;;;;9.73;100.00;100727.97;1726172;83;21496;-55
2022/10/09 02:03:35;;;;;;;9.00;6.73;;;;;;;9.64;100.00;100730.28;1726422;83;21178;-56
2022/10/09 02:06:04;;;;;;;8.83;6.67;;;;;;;9.62;100.00;100730.92;1718605;82;21116;-57
2022/10/09 02:08:32;;;;;;;8.03;5.93;;;;;;;9.59;100.00;100729.97;1718022;83;21135;-56
2022/10/09 02:11:00;;;;;;;9.03;6.23;;;;;;;9.69;100.00;100727.98;1718641;83;21306;-56
2022/10/09 02:13:27;;;;;;;10.07;7.10;;;;;;;9.68;100.00;100728.97;1718694;83;21119;-55
2022/10/09 02:16:19;;;;;;;9.80;6.33;;;;;;;9.69;100.00;100724.08;1718651;82;21147;-55
2022/10/09 02:18:50;;;;;;;8.93;6.05;;;;;;;9.43;100.00;100726.41;1718753;83;21246;-55
2022/10/09 02:21:23;;;;;;;9.80;6.22;;;;;;;9.46;100.00;100729.16;1716071;83;21034;-55
2022/10/09 02:23:50;;;;;;;12.13;6.37;;;;;;;9.54;100.00;100721.83;1718357;82;21166;-57
2022/10/09 02:26:18;;;;;;;10.50;6.50;;;;;;;9.59;100.00;100722.16;1718574;83;21283;-57
2022/10/09 02:28:45;;;;;;;10.57;6.00;;;;;;;9.54;100.00;100721.83;1718526;83;21138;-55
2022/10/09 02:31:25;;;;;;;10.23;6.53;;;;;;;9.59;100.00;100713.86;1718576;83;21252;-55
2022/10/09 02:34:03;;;;;;;9.43;6.47;;;;;;;9.57;100.00;100711.09;1718451;83;21155;-56
2022/10/09 02:36:30;;;;;;;8.77;6.20;;;;;;;9.58;100.00;100714.01;1717959;83;21123;-56
2022/10/09 02:38:57;;;;;;;10.03;6.23;;;;;;;9.42;100.00;100713.05;1718678;83;21339;-56
2022/10/09 02:41:25;;;;;;;7.43;5.03;;;;;;;9.41;100.00;100712.73;1718697;83;21118;-56
2022/10/09 02:43:52;;;;;;;8.67;5.73;;;;;;;9.43;100.00;100710.80;1718161;83;21156;-58
2022/10/09 02:46:19;;;;;;;8.60;6.30;;;;;;;9.42;100.00;100704.44;1718617;83;21319;-56
2022/10/09 02:48:46;;;;;;;8.20;5.50;;;;;;;9.38;100.00;100704.45;1718726;83;21343;-55
2022/10/09 02:51:13;;;;;;;9.47;5.47;;;;;;;9.40;100.00;100705.11;1718488;83;21142;-55
2022/10/09 02:53:41;;;;;;;8.13;5.33;;;;;;;9.40;100.00;100698.61;1718758;82;21193;-64
2022/10/09 02:56:08;;;;;;;8.57;6.17;;;;;;;9.42;100.00;100696.63;1718223;82;21213;-58
2022/10/09 02:58:35;;;;;;;8.73;5.00;;;;;;;9.38;100.00;100692.25;1718514;83;21198;-55
2022/10/09 03:01:03;;;;;;;9.97;5.30;;;;;;;9.41;100.00;100698.92;1718629;83;21270;-55
2022/10/09 03:03:31;;;;;;;7.03;5.23;;;;;;;9.40;100.00;100692.91;1718699;83;21272;-55
2022/10/09 03:06:09;;;;;;;10.87;5.60;;;;;;;9.37;100.00;100694.53;1717865;82;21141;-62
2022/10/09 03:08:41;;;;;;;10.23;5.73;;;;;;;9.36;100.00;100703.81;1718676;83;21209;-55
2022/10/09 03:11:10;;;;;;;7.30;5.63;;;;;;;9.31;100.00;100699.08;1718647;83;21081;-58
2022/10/09 03:13:38;;;;;;;8.43;5.43;;;;;;;9.30;100.00;100694.86;1718582;83;21257;-58
2022/10/09 03:16:07;;;;;;;10.03;5.27;;;;;;;9.30;100.00;100682.34;1718336;83;21178;-55
2022/10/09 03:18:36;;;;;;;9.30;5.67;;;;;;;9.31;100.00;100681.36;1718698;83;21280;-56
2022/10/09 03:21:11;;;;;;;9.33;5.60;;;;;;;9.31;100.00;100674.36;1718782;83;21735;-55
2022/10/09 03:23:38;;;;;;;9.83;5.63;;;;;;;9.34;100.00;100662.33;1718433;83;21289;-59
2022/10/09 03:26:09;;;;;;;9.83;5.90;;;;;;;9.36;100.00;100661.69;1718382;83;21339;-55
2022/10/09 03:28:39;;;;;;;8.90;5.33;;;;;;;9.34;100.00;100663.63;1718656;83;21164;-55
2022/10/09 03:31:07;;;;;;;10.03;5.83;;;;;;;9.35;100.00;100659.23;1718607;83;21281;-55
2022/10/09 03:33:36;;;;;;;9.47;5.90;;;;;;;9.37;100.00;100664.61;1718481;83;21245;-62
2022/10/09 03:36:03;;;;;;;8.33;6.23;;;;;;;9.38;100.00;100662.81;1718166;83;21162;-55
2022/10/09 03:38:30;;;;;;;7.80;5.67;;;;;;;9.41;100.00;100659.40;1718644;83;21332;-56
2022/10/09 03:40:59;;;;;;;8.70;5.37;;;;;;;9.37;100.00;100662.02;1718660;83;21043;-55
2022/10/09 03:43:27;;;;;;;11.57;5.70;;;;;;;9.38;100.00;100657.61;1718668;83;21760;-57
2022/10/09 03:45:54;;;;;;;11.83;5.50;;;;;;;9.43;100.00;100657.45;1718191;83;22093;-59
2022/10/09 03:48:22;;;;;;;9.10;4.80;;;;;;;9.42;100.00;100654.51;1717998;83;21038;-55
2022/10/09 03:50:49;;;;;;;8.67;6.13;;;;;;;9.54;100.00;100655.47;1718325;83;21295;-56
2022/10/09 03:53:16;;;;;;;9.27;5.63;;;;;;;9.68;100.00;100662.59;1718579;83;21244;-56
2022/10/09 03:55:45;;;;;;;9.20;5.60;;;;;;;9.85;100.00;100655.06;1718484;83;21266;-55
2022/10/09 03:58:12;;;;;;;7.80;5.37;;;;;;;10.08;100.00;100656.93;1718296;83;21281;-59
2022/10/09 04:00:39;;;;;;;11.63;5.57;;;;;;;10.73;100.00;100665.70;1718364;83;21233;-55
2022/10/09 04:03:06;;;;;;;8.87;4.97;;;;;;;11.07;100.00;100665.77;1718290;83;21332;-55
2022/10/09 04:05:34;;;;;;;8.97;5.50;;;;;;;11.07;100.00;100665.77;1718523;82;21413;-55
2022/10/09 04:08:03;;;;;;;7.13;5.20;;;;;;;11.36;100.00;100672.83;1718229;83;21349;-55
2022/10/09 04:10:31;;;;;;;8.50;5.00;;;;;;;11.63;100.00;100676.64;1717760;83;21592;-57
2022/10/09 04:12:58;;;;;;;7.90;5.30;;;;;;;11.98;100.00;100675.66;1718569;83;22120;-56
2022/10/09 04:15:26;;;;;;;8.33;5.30;;;;;;;12.28;100.00;100668.58;1718365;83;22249;-57
2022/10/09 04:17:53;;;;;;;8.23;5.33;;;;;;;12.79;100.00;100647.05;1718418;83;20939;-56
2022/10/09 04:20:21;;;;;;;8.27;4.87;;;;;;;12.79;100.00;100647.05;1718591;83;21473;-63
2022/10/09 04:22:48;;;;;;;8.93;5.13;;;;;;;13.09;100.00;100645.59;1718230;83;20983;-57
2022/10/09 04:25:15;;;;;;;8.63;5.53;;;;;;;13.19;100.00;100653.94;1718568;82;21073;-56
2022/10/09 04:27:42;;;;;;;6.63;5.17;;;;;;;13.29;100.00;100651.00;1718383;83;21161;-57
2022/10/09 04:30:10;;;;;;;8.40;4.90;;;;;;;13.44;100.00;100652.20;1718396;83;21006;-55
2022/10/09 04:32:38;;;;;;;7.57;5.63;;;;;;;13.22;100.00;100660.11;1718183;83;21520;-59
2022/10/09 04:35:06;;;;;;;8.87;5.50;;;;;;;12.84;100.00;100661.71;1718521;83;21519;-56
2022/10/09 04:37:35;;;;;;;8.27;5.17;;;;;;;12.56;100.00;100671.28;1718784;83;21006;-56
2022/10/09 04:40:04;;;;;;;6.20;4.50;;;;;;;12.24;100.00;100671.25;1718589;83;21217;-57
2022/10/09 04:42:31;;;;;;;8.23;5.33;;;;;;;12.00;100.00;100684.10;1718684;83;21078;-56
2022/10/09 04:44:59;;;;;;;10.77;5.40;;;;;;;11.84;100.00;100685.91;1717899;83;21010;-61
2022/10/09 04:47:26;;;;;;;6.23;4.83;;;;;;;11.71;100.00;100684.91;1718327;83;22125;-55
2022/10/09 04:49:53;;;;;;;8.07;4.83;;;;;;;11.58;100.00;100689.43;1718763;83;21424;-57
2022/10/09 04:52:22;;;;;;;8.03;4.60;;;;;;;11.45;100.00;100686.95;1718618;83;21035;-55
2022/10/09 04:54:49;;;;;;;7.07;5.37;;;;;;;11.32;100.00;100680.20;1718547;83;20989;-57
2022/10/09 04:57:16;;;;;;;6.20;4.73;;;;;;;11.26;100.00;100673.10;1718179;83;21500;-55
2022/10/09 04:59:44;;;;;;;6.47;5.10;;;;;;;11.26;100.00;100673.10;1718461;83;21037;-55
2022/10/09 05:02:11;;;;;;;7.73;4.87;;;;;;;11.27;100.00;100673.41;1718611;83;21581;-55
2022/10/09 05:04:40;;;;;;;7.27;4.90;;;;;;;11.40;100.00;100668.88;1718568;82;21728;-55
2022/10/09 05:07:08;;;;;;;8.33;5.53;;;;;;;11.50;100.00;100666.02;1726166;83;20974;-64
2022/10/09 05:09:35;;;;;;;8.17;6.03;;;;;;;11.63;100.00;100667.50;1725913;83;21648;-57
2022/10/09 05:12:02;;;;;;;8.90;5.90;;;;;;;11.63;100.00;100667.50;1726511;83;21276;-57
2022/10/09 05:14:29;;;;;;;10.77;5.33;;;;;;;11.67;100.00;100664.37;1726193;83;22206;-57
2022/10/09 05:17:01;;;;;;;8.93;5.17;;;;;;;11.80;100.00;100659.81;1726206;83;21621;-57
2022/10/09 05:19:27;;;;;;;6.97;5.20;;;;;;;11.87;100.00;100660.74;1726226;83;22230;-60
2022/10/09 05:21:56;;;;;;;7.70;5.30;;;;;;;12.02;100.00;100657.31;1726434;83;20977;-57
2022/10/09 05:24:23;;;;;;;7.07;5.03;;;;;;;12.17;100.00;100651.56;1726616;83;21638;-57
2022/10/09 05:26:50;;;;;;;8.40;4.97;;;;;;;12.31;100.00;100652.03;1726323;83;22170;-57
2022/10/09 05:29:18;;;;;;;7.50;5.27;;;;;;;12.43;100.00;100652.36;1726374;83;21847;-54
2022/10/09 05:31:45;;;;;;;6.87;5.43;;;;;;;12.54;100.00;100653.64;1725975;82;21475;-56
2022/10/09 05:34:12;;;;;;;8.23;5.60;;;;;;;12.74;100.00;100640.78;1726533;83;21405;-55
2022/10/09 05:36:40;;;;;;;6.57;4.73;;;;;;;12.86;100.00;100645.31;1726417;83;21422;-54
2022/10/09 05:39:07;;;;;;;8.57;5.13;;;;;;;13.10;100.00;100640.66;1726485;83;21085;-54
2022/10/09 05:41:35;;;;;;;7.37;5.17;;;;;;;13.23;100.00;100630.34;1726163;83;21105;-64
2022/10/09 05:44:02;;;;;;;7.73;4.90;;;;;;;13.50;100.00;100643.59;1726449;83;20886;-55
2022/10/09 05:46:30;;;;;;;8.67;5.67;;;;;;;13.94;100.00;100638.45;1726852;83;21026;-57
2022/10/09 05:48:59;;;;;;;8.20;5.43;;;;;;;14.52;100.00;100629.70;1726701;83;21495;-54
2022/10/09 05:51:30;;;;;;;8.97;5.00;;;;;;;15.12;100.00;100631.03;1726530;83;21042;-54
2022/10/09 05:53:58;;;;;;;8.17;5.03;;;;;;;15.70;100.00;100637.70;1725862;83;21611;-55
2022/10/09 05:56:27;;;;;;;8.20;4.97;;;;;;;16.06;100.00;100641.09;1726072;81;21033;-55
2022/10/09 05:58:56;;;;;;;6.47;5.00;;;;;;;16.29;100.00;100650.61;1726829;83;20946;-54
2022/10/09 06:01:26;;;;;;;7.37;4.93;;;;;;;16.62;100.00;100657.48;1726420;83;21014;-54
2022/10/09 06:03:56;;;;;;;8.40;4.80;;;;;;;16.95;100.00;100649.89;1726312;83;20942;-54
2022/10/09 06:06:25;;;;;;;6.13;4.73;;;;;;;17.21;100.00;100647.02;1721918;80;21314;-54
2022/10/09 06:08:53;;;;;;;7.80;5.33;;;;;;;17.24;100.00;100648.42;1718832;83;20975;-54
2022/10/09 06:11:27;;;;;;;7.63;5.20;;;;;;;16.97;100.00;100645.20;1718817;83;20942;-54
2022/10/09 06:13:55;;;;;;;11.10;5.20;;;;;;;16.52;100.00;100647.44;1718110;83;20992;-55
2022/10/09 06:16:31;;;;;;;7.23;5.10;;;;;;;16.08;100.00;100646.16;1718618;82;21074;-55
2022/10/09 06:19:00;;;;;;;8.13;5.53;;;;;;;15.83;100.00;100646.84;1718822;83;21890;-54
2022/10/09 06:21:28;;;;;;;7.27;4.83;;;;;;;15.84;100.00;100643.23;1718117;83;21528;-55
2022/10/09 06:23:57;;;;;;;8.77;5.50;;;;;;;15.73;100.00;100648.62;1718948;82;21809;-54
2022/10/09 06:26:29;;;;;;;8.25;5.87;;;;;;;15.50;100.00;100657.45;1718790;83;20943;-54
2022/10/09 06:28:58;;;;;;;9.33;5.90;;;;;;;15.33;100.00;100655.23;1718743;83;20993;-54
2022/10/09 06:31:27;;;;;;;8.13;5.77;;;;;;;15.34;100.00;100654.72;1718142;83;21117;-55
2022/10/09 06:33:54;;;;;;;8.13;6.47;;;;;;;15.36;100.00;100647.45;1718570;83;21073;-54
2022/10/09 06:36:25;;;;;;;10.13;6.07;;;;;;;15.38;100.00;100663.84;1718662;83;20946;-54
2022/10/09 06:38:53;;;;;;;10.33;8.97;;;;;;;15.30;100.00;100659.61;1718494;83;21658;-54
2022/10/09 06:41:23;;;;;;;9.77;7.27;;;;;;;15.20;100.00;100657.89;1718156;83;21113;-56
2022/10/09 06:43:57;;;;;;;7.57;5.93;;;;;;;15.04;100.00;100653.86;1718615;83;21323;-54
2022/10/09 06:46:28;;;;;;;9.17;5.37;;;;;;;14.86;100.00;100648.91;1718820;83;20936;-54
2022/10/09 06:48:57;;;;;;;8.53;5.87;;;;;;;14.89;100.00;100640.61;1717832;83;20954;-56
2022/10/09 06:51:24;;;;;;;8.10;6.43;;;;;;;14.82;100.00;100644.56;1694602;83;21041;-54
2022/10/09 06:53:53;;;;;;;12.10;10.80;;;;;;;14.83;100.00;100630.42;1718576;83;21141;-55
2022/10/09 06:56:22;;;;;;;10.50;5.60;;;;;;;14.84;100.00;100626.78;1718830;83;21505;-54
2022/10/09 06:58:49;;;;;;;6.23;4.67;;;;;;;14.76;100.00;100615.98;1718163;83;20991;-57
2022/10/09 07:01:23;;;;;;;8.27;5.57;;;;;;;14.71;100.00;100615.79;1718634;83;21311;-57
2022/10/09 07:03:55;;;;;;;25.77;20.60;;;;;;;14.58;100.00;100617.08;1718829;83;20974;-57
2022/10/09 07:06:24;;;;;;;24.13;19.33;;;;;;;14.51;100.00;100617.09;1722365;82;21680;-64
2022/10/09 07:08:57;;;;;;;16.87;13.60;;;;;;;14.53;100.00;100620.81;1726116;81;21614;-55
2022/10/09 07:11:34;;;;;;;12.70;6.90;;;;;;;14.57;100.00;100607.09;1726375;83;21005;-56
2022/10/09 07:14:02;;;;;;;6.77;4.80;;;;;;;14.53;100.00;100605.08;1726428;83;20903;-56
2022/10/09 07:16:31;;;;;;;6.33;4.27;;;;;;;14.53;100.00;100598.01;1725764;83;20935;-58
2022/10/09 07:19:02;;;;;;;8.78;5.72;;;;;;;14.52;100.00;100600.33;1726629;81;20895;-57
2022/10/09 07:21:29;;;;;;;5.80;4.17;;;;;;;14.54;100.00;100597.50;1726107;83;21175;-56
2022/10/09 07:24:01;;;;;;;6.87;3.90;;;;;;;14.55;100.00;100593.38;1726397;83;21527;-56
2022/10/09 07:26:30;;;;;;;6.70;3.40;;;;;;;14.63;100.00;100593.69;1698603;83;20974;-57
2022/10/09 07:28:57;;;;;;;5.03;3.20;;;;;;;14.72;100.00;100588.53;1726628;83;21789;-57
2022/10/09 07:31:24;;;;;;;7.13;3.97;;;;;;;14.86;100.00;100583.30;1726140;83;20906;-57
2022/10/09 07:33:55;;;;;;;6.50;4.70;;;;;;;14.96;100.00;100584.47;1726112;83;21215;-57
2022/10/09 07:36:22;;;;;;;8.00;4.93;;;;;;;15.05;100.00;100587.72;1725856;83;20915;-60
2022/10/09 07:38:54;;;;;;;10.23;5.67;;;;;;;15.30;100.00;100576.87;1726492;83;21342;-57
2022/10/09 07:41:23;;;;;;;7.60;5.83;;;;;;;15.43;100.00;100573.90;1726687;83;21440;-57
2022/10/09 07:43:50;;;;;;;8.27;5.97;;;;;;;15.50;100.00;100572.86;1726380;83;21387;-57
2022/10/09 07:46:19;;;;;;;6.70;3.77;;;;;;;15.69;100.00;100571.20;1725672;83;22632;-58
2022/10/09 07:48:46;;;;;;;8.33;6.43;;;;;;;15.93;100.00;100566.23;1726183;83;20997;-54
2022/10/09 07:51:25;;;;;;;7.20;4.90;;;;;;;16.20;100.00;100569.52;1726204;83;20891;-55
2022/10/09 07:53:52;;;;;;;6.33;4.30;;;;;;;16.60;100.00;100567.92;1725851;83;21014;-59
2022/10/09 07:56:27;;;;;;;9.97;5.93;;;;;;;16.97;100.00;100569.66;1726292;83;21962;-54
2022/10/09 07:59:00;;;;;;;5.57;4.27;;;;;;;17.31;100.00;100575.88;1726430;83;22049;-55
2022/10/09 08:01:27;;;;;;;6.53;3.97;;;;;;;17.62;100.00;100563.88;1726339;83;20978;-56
2022/10/09 08:03:54;;;;;;;8.83;3.70;;;;;;;18.03;100.00;100570.77;1726037;83;21046;-57
2022/10/09 08:06:22;;;;;;;6.23;4.00;;;;;;;18.31;100.00;100562.27;1725944;82;20975;-54
2022/10/09 08:08:50;;;;;;;5.50;3.30;;;;;;;18.53;100.00;100568.62;1726138;81;21232;-55
2022/10/09 08:11:19;;;;;;;5.73;3.40;;;;;;;18.68;100.00;100566.33;1726218;83;20986;-58
2022/10/09 08:13:48;;;;;;;5.73;3.20;;;;;;;18.87;100.00;100561.77;1726227;83;20981;-57
2022/10/09 08:16:16;;;;;;;3.63;2.53;;;;;;;19.00;100.00;100558.08;1725880;83;20990;-57
2022/10/09 08:18:44;;;;;;;6.50;3.37;;;;;;;18.96;100.00;100554.30;1726281;83;21345;-59
2022/10/09 08:21:15;;;;;;;5.33;3.20;;;;;;;18.86;100.00;100565.95;1726272;82;21550;-57
2022/10/09 08:23:42;;;;;;;5.78;3.52;;;;;;;18.87;100.00;100548.56;1726114;83;21249;-57
2022/10/09 08:26:17;;;;;;;7.23;3.40;;;;;;;19.06;100.00;100561.13;1725489;81;20950;-59
2022/10/09 08:28:52;;;;;;;4.17;2.90;;;;;;;19.10;100.00;100552.23;1725936;83;21014;-55
2022/10/09 08:31:20;;;;;;;5.90;3.27;;;;;;;19.20;100.00;100555.86;1725475;83;21547;-56
2022/10/09 08:33:53;;;;;;;7.10;4.47;;;;;;;19.37;100.00;100551.20;1726197;83;21006;-66
2022/10/09 08:36:20;;;;;;;5.23;3.20;;;;;;;19.57;100.00;100549.47;1725927;83;21124;-56
2022/10/09 08:38:47;;;;;;;4.73;2.87;;;;;;;19.65;100.00;100551.23;1726179;83;20977;-55
2022/10/09 08:41:42;;;;;;;4.37;3.07;;;;;;;19.77;100.00;100558.33;1726119;83;20961;-57
2022/10/09 08:44:20;;;;;;;7.57;3.57;;;;;;;19.86;100.00;100560.38;1726721;83;21082;-58
2022/10/09 08:47:15;;;;;;;3.93;2.63;;;;;;;19.70;100.00;100553.20;1726425;83;21010;-56
2022/10/09 08:50:04;;;;;;;4.13;2.87;;;;;;;19.72;100.00;100550.31;1726230;83;21336;-56
2022/10/09 08:53:02;;;;;;;5.17;2.80;;;;;;;19.93;100.00;100546.48;1726912;83;21480;-57
2022/10/09 08:55:35;;;;;;;4.73;2.60;;;;;;;20.00;100.00;100536.25;1726684;83;20962;-57
2022/10/09 08:58:05;;;;;;;5.00;2.63;;;;;;;19.84;100.00;100540.48;1726382;83;21432;-57
2022/10/09 09:00:52;;;;;;;9.63;3.03;;;;;;;19.87;100.00;100532.07;1726038;81;21504;-59
2022/10/09 09:03:50;;;;;;;4.47;2.73;;;;;;;19.89;100.00;100520.22;1697972;83;21264;-56
2022/10/09 09:06:37;;;;;;;3.77;2.47;;;;;;;19.78;100.00;100525.05;1725305;82;20998;-57
2022/10/09 09:09:18;;;;;;;11.63;7.33;;;;;;;19.56;100.00;100534.12;1718739;83;20963;-55
2022/10/09 09:12:10;;;;;;;11.33;6.37;;;;;;;19.41;100.00;100565.03;1718119;83;20904;-56
2022/10/09 09:15:03;;;;;;;19.03;12.10;;;;;;;19.22;100.00;100532.38;1718898;83;20998;-56
2022/10/09 09:17:55;;;;;;;11.33;8.50;;;;;;;19.31;100.00;100525.69;1718887;83;21343;-56
2022/10/09 09:20:53;;;;;;;5.63;3.60;;;;;;;19.58;100.00;100509.55;1718885;83;20952;-57
2022/10/09 09:23:28;;;;;;;6.17;3.93;;;;;;;19.73;100.00;100513.03;1718488;83;21041;-59
2022/10/09 09:25:55;;;;;;;10.13;3.97;;;;;;;19.96;100.00;100504.70;1713253;83;21053;-56
2022/10/09 09:28:29;;;;;;;4.97;2.53;;;;;;;20.10;100.00;100502.83;1718502;83;20948;-57
2022/10/09 09:31:04;;;;;;;6.77;2.83;;;;;;;20.18;100.00;100502.42;1718551;83;21144;-56
2022/10/09 09:33:42;;;;;;;5.47;2.80;;;;;;;20.13;100.00;100510.30;1718926;83;21501;-56
2022/10/09 09:36:30;;;;;;;4.90;2.67;;;;;;;20.07;100.00;100513.09;1718531;83;21300;-57
2022/10/09 09:38:59;;;;;;;5.10;2.93;;;;;;;19.95;100.00;100511.84;1718917;82;21045;-56
2022/10/09 09:41:27;;;;;;;4.67;2.50;;;;;;;19.83;100.00;100492.59;1718393;83;20922;-59
2022/10/09 09:43:55;;;;;;;6.90;3.33;;;;;;;19.93;100.00;100510.77;1694483;83;21355;-57
2022/10/09 09:46:26;;;;;;;6.53;2.73;;;;;;;19.99;100.00;100502.38;1718645;83;21054;-56
2022/10/09 09:48:53;;;;;;;5.28;2.72;;;;;;;20.02;100.00;100494.49;1718929;83;20884;-56
2022/10/09 09:51:26;;;;;;;8.23;2.63;;;;;;;19.99;100.00;100493.64;1718223;83;20967;-57
2022/10/09 09:53:57;;;;;;;4.73;2.80;;;;;;;19.84;100.00;100492.86;1718676;83;21105;-56
2022/10/09 09:56:42;;;;;;;5.78;2.85;;;;;;;19.71;100.00;100491.84;1718867;83;21211;-58
2022/10/09 09:59:28;;;;;;;5.60;2.80;;;;;;;19.76;100.00;100485.31;1718030;83;20966;-59
2022/10/09 10:02:11;;;;;;;6.97;2.40;;;;;;;19.86;100.00;100482.85;1718140;83;21532;-57
2022/10/09 10:04:50;;;;;;;4.50;2.40;;;;;;;20.11;100.00;100499.13;1718343;83;21067;-65
2022/10/09 10:07:35;;;;;;;4.27;2.67;;;;;;;20.34;100.00;100473.05;1699451;83;21014;-57
2022/10/09 10:10:16;;;;;;;5.20;2.40;;;;;;;20.48;100.00;100456.81;1726134;83;21308;-62
2022/10/09 10:12:53;;;;;;;6.30;2.53;;;;;;;20.63;100.00;100449.10;1726648;83;20987;-58
2022/10/09 10:15:32;;;;;;;5.57;2.60;;;;;;;20.75;100.00;100441.84;1726491;83;20930;-57
2022/10/09 10:18:08;;;;;;;3.00;2.00;;;;;;;20.83;100.00;100433.45;1726325;83;20997;-57
2022/10/09 10:20:48;;;;;;;4.63;1.93;;;;;;;21.03;100.00;100428.15;1726014;83;20946;-57
2022/10/09 10:23:43;;;;;;;4.57;2.37;;;;;;;21.18;100.00;100419.56;1726503;83;21316;-57
2022/10/09 10:26:27;;;;;;;4.53;2.83;;;;;;;21.36;100.00;100404.64;1726257;83;21014;-56
2022/10/09 10:29:14;;;;;;;5.10;2.37;;;;;;;21.63;100.00;100404.65;1726686;83;20943;-56
2022/10/09 10:31:58;;;;;;;4.63;2.10;;;;;;;21.76;100.00;100394.92;1726479;83;21377;-56
2022/10/09 10:34:39;;;;;;;10.40;2.60;;;;;;;21.73;100.00;100395.42;1726052;83;21060;-57
2022/10/09 10:37:20;;;;;;;6.12;2.25;;;;;;;21.66;100.00;100391.39;1686476;83;21248;-56
2022/10/09 10:39:58;;;;;;;4.12;2.25;;;;;;;21.68;100.00;100382.66;1681062;83;20983;-57
2022/10/09 10:43:04;;;;;;;6.73;2.10;;;;;;;21.51;100.00;100380.91;1726625;83;21037;-57
2022/10/09 10:46:18;;;;;;;4.00;2.20;;;;;;;21.31;100.00;100389.99;1726360;83;20934;-58
2022/10/09 10:48:46;;;;;;;5.63;2.47;;;;;;;21.14;100.00;100374.99;1726440;83;21534;-56
2022/10/09 10:51:51;;;;;;;5.17;2.00;;;;;;;20.92;100.00;100372.11;1726493;83;21296;-66
2022/10/09 10:54:39;;;;;;;4.53;2.10;;;;;;;20.75;100.00;100364.22;1726122;83;20990;-56
2022/10/09 10:57:26;;;;;;;4.83;2.40;;;;;;;20.51;100.00;100349.91;1726309;83;21486;-56
2022/10/09 11:00:05;;;;;;;5.10;2.33;;;;;;;20.45;100.00;100352.17;1726618;83;20935;-56
2022/10/09 11:03:09;;;;;;;6.80;2.87;;;;;;;20.49;100.00;100350.66;1726396;83;21064;-55
2022/10/09 11:05:50;;;;;;;5.53;2.60;;;;;;;20.46;100.00;100343.73;1725811;83;21808;-57
2022/10/09 11:08:48;;;;;;;5.13;2.53;;;;;;;20.35;100.00;100340.15;1721013;82;20883;-56
2022/10/09 11:11:26;;;;;;;5.17;2.70;;;;;;;20.22;100.00;100339.16;1718389;83;21526;-56
2022/10/09 11:14:14;;;;;;;6.77;3.23;;;;;;;20.07;100.00;100330.49;1718742;83;20887;-57
2022/10/09 11:17:06;;;;;;;4.20;2.40;;;;;;;19.94;100.00;100322.39;1699481;83;21050;-56
2022/10/09 11:19:42;;;;;;;5.10;2.43;;;;;;;19.87;100.00;100321.76;1718505;82;21238;-56
2022/10/09 11:22:30;;;;;;;4.73;2.30;;;;;;;19.93;100.00;100315.50;1718038;83;21492;-56
2022/10/09 11:25:03;;;;;;;3.70;2.30;;;;;;;19.83;100.00;100318.80;1718341;83;21039;-57
2022/10/09 11:27:47;;;;;;;3.80;2.30;;;;;;;19.86;100.00;100328.09;1718114;83;20935;-58
2022/10/09 11:30:15;;;;;;;5.80;2.50;;;;;;;19.80;100.00;100325.09;1718410;83;21092;-56
2022/10/09 11:33:13;;;;;;;7.67;3.03;;;;;;;19.75;100.00;100321.05;1718568;83;21243;-57
2022/10/09 11:35:45;;;;;;;4.07;2.10;;;;;;;19.71;100.00;100315.45;1717848;83;21569;-57
2022/10/09 11:38:28;;;;;;;7.47;2.20;;;;;;;19.70;100.00;100316.50;1718684;83;20899;-60
2022/10/09 11:40:55;;;;;;;4.75;2.72;;;;;;;19.73;100.00;100312.55;1718206;83;20903;-60
2022/10/09 11:43:43;;;;;;;4.57;2.57;;;;;;;19.73;100.00;100309.38;1718232;82;20908;-56
2022/10/09 11:46:38;;;;;;;3.43;1.97;;;;;;;19.73;100.00;100311.22;1718606;83;21155;-57
2022/10/09 11:49:25;;;;;;;5.67;2.20;;;;;;;19.74;100.00;100318.94;1718444;83;21008;-56